createdAt,value
2023-01-10T00:06:39.299Z,93.0
2023-01-10T00:20:39.310Z,95.0
2023-01-10T00:34:39.317Z,96.0
2023-01-10T00:48:39.345Z,97.0
2023-01-10T01:02:39.482Z,97.0
2023-01-10T01:16:39.423Z,98.0
2023-01-10T01:30:39.401Z,98.0
2023-01-10T01:44:39.442Z,98.0
2023-01-10T01:58:39.435Z,99.0
2023-01-10T02:12:39.485Z,99.0
2023-01-10T02:26:39.460Z,99.0
2023-01-10T02:40:40.220Z,99.0
2023-01-10T02:54:40.256Z,99.0
2023-01-10T03:08:40.265Z,99.0
2023-01-10T03:22:40.267Z,99.0
2023-01-10T03:36:40.310Z,99.0
2023-01-10T03:50:40.339Z,95.0
2023-01-10T04:04:40.341Z,95.0
2023-01-10T04:18:40.347Z,95.0
2023-01-10T04:32:40.398Z,96.0
2023-01-10T04:46:40.370Z,83.0
2023-01-10T05:01:40.441Z,79.0
2023-01-10T05:15:40.366Z,71.0
2023-01-10T05:29:40.381Z,68.0
2023-01-10T05:43:40.564Z,71.0
2023-01-10T05:57:40.722Z,78.0
2023-01-10T06:12:40.631Z,74.0
2023-01-10T06:26:40.686Z,76.0
2023-01-10T06:40:40.742Z,75.0
2023-01-10T06:55:40.740Z,73.0
2023-01-10T07:10:40.748Z,76.0
2023-01-10T07:25:40.788Z,76.0
2023-01-10T07:40:40.787Z,76.0
2023-01-10T07:55:40.772Z,70.0
2023-01-10T08:10:40.790Z,67.0
2023-01-10T08:25:40.777Z,69.0
2023-01-10T08:40:40.808Z,61.0
2023-01-10T08:55:40.776Z,66.0
2023-01-10T09:11:41.907Z,62.0
2023-01-10T09:26:40.790Z,60.0
2023-01-10T09:41:40.797Z,57.0
2023-01-10T09:56:41.006Z,57.0
2023-01-10T10:11:40.940Z,54.0
2023-01-10T10:18:29.200Z,56.0
2023-01-10T10:33:29.321Z,57.0
2023-01-10T10:48:29.261Z,61.0
2023-01-10T11:03:29.267Z,60.0
2023-01-10T11:18:29.297Z,62.0
2023-01-10T11:33:29.303Z,63.0
2023-01-10T11:48:56.159Z,64.0
2023-01-10T12:03:29.379Z,63.0
2023-01-10T12:18:29.453Z,64.0
2023-01-10T12:33:29.427Z,65.0
2023-01-10T12:48:29.414Z,63.0
2023-01-10T12:54:27.132Z,63.0
2023-01-10T13:09:27.245Z,62.0
2023-01-10T13:24:27.319Z,61.0
2023-01-10T13:39:27.289Z,61.0
2023-01-10T13:54:27.319Z,57.0
2023-01-10T14:09:27.538Z,61.0
2023-01-10T14:24:27.807Z,39.0
2023-01-10T14:39:27.916Z,35.0
2023-01-10T14:54:27.967Z,36.0
2023-01-10T15:09:27.977Z,33.0
2023-01-10T15:24:27.989Z,38.0
2023-01-10T15:39:28.098Z,39.0
2023-01-10T15:54:28.095Z,41.0
2023-01-10T16:09:28.082Z,51.0
2023-01-10T16:24:28.068Z,56.0
2023-01-10T16:39:28.078Z,54.0
2023-01-10T16:53:28.150Z,50.0
2023-01-10T17:07:28.146Z,57.0
2023-01-10T17:21:28.144Z,62.0
2023-01-10T17:35:28.157Z,60.0
2023-01-10T17:49:28.297Z,65.0
2023-01-10T18:03:28.296Z,63.0
2023-01-10T18:17:28.352Z,62.0
2023-01-10T18:31:28.363Z,61.0
2023-01-10T18:46:28.530Z,63.0
2023-01-10T19:00:28.372Z,68.0
2023-01-10T19:14:28.393Z,67.0
2023-01-10T19:28:29.507Z,70.0
2023-01-10T19:42:28.438Z,68.0
2023-01-10T19:56:28.424Z,65.0
2023-01-10T20:10:28.431Z,70.0
2023-01-10T20:24:28.509Z,74.0
2023-01-10T20:38:28.486Z,69.0
2023-01-10T20:52:28.569Z,66.0
2023-01-10T21:06:28.646Z,68.0
2023-01-10T21:20:28.692Z,64.0
2023-01-10T21:34:28.713Z,69.0
2023-01-10T21:48:28.726Z,65.0
2023-01-10T22:02:28.784Z,68.0
2023-01-10T22:16:28.854Z,72.0
2023-01-10T22:30:28.796Z,72.0
2023-01-10T22:45:28.929Z,77.0
2023-01-10T22:59:28.899Z,73.0
2023-01-10T23:13:28.903Z,74.0
2023-01-10T23:27:28.918Z,78.0
2023-01-10T23:41:28.945Z,77.0
2023-01-10T23:55:28.914Z,77.0
